Watson Lake Airport

Airport
ICAO code: 
CYQH
Summary
ICAO Region: 
NAM
Territory: 
Location: 
Watson Lake, Yukon,
Coordinates: 
Aerial View: 
60° 6' 48.459" N, 128° 48' 57.854" W
Airport BS: 
Non Avian Wildlife Hazards to Aircraft
Airport CFIT: 
Altimeter Temperature Error Correction
Airport GND: 
Aircraft Ground De/Anti Icing
Airport RE: 
Landing on Contaminated Runways
Metar
Observation
CYQH 271200Z VRB02KT 20SM BKN072 M19/M21 A2972 RMK AC6 CLIMAT -17.9/-24.7/0.0 SLP128
Station
Watson Lake, Y. T.
Date/Time
2021-11-27 12:00:00
Wind speed
02 kts
Lowest cloud amount
broken clouds
Temperature
-19°C
Dew point
-21°C
Humidity
84%
Weather condition
n/a

Description

Regional airport serving the town of Watson Lake, Yukon, Canada.

Climatology

Subarctic climate (Köppen climate classification Dfc) - long, usually very cold winters, and short, cool to mild summers.

Runways

Designator Length Width Surface Rops
8/26 1676 46 ASP No/No
Airport map: 
Aerial View: 

SKYbrary Partners:

Safety knowledge contributed by: